sensor_id;sensor_type;location;lat;lon;timestamp;temperature;humidity
3660;DHT22;1846;51.482;7.224;2023-07-02T00:02:20;18.70;1.00
3660;DHT22;1846;51.482;7.224;2023-07-02T00:04:47;18.60;1.00
3660;DHT22;1846;51.482;7.224;2023-07-02T00:07:14;18.70;1.00
3660;DHT22;1846;51.482;7.224;2023-07-02T00:09:41;18.70;1.00
3660;DHT22;1846;51.482;7.224;2023-07-02T00:12:09;18.70;1.00
3660;DHT22;1846;51.482;7.224;2023-07-02T00:14:36;18.80;1.00
3660;DHT22;1846;51.482;7.224;2023-07-02T00:17:03;18.60;1.00
3660;DHT22;1846;51.482;7.224;2023-07-02T00:19:30;18.60;1.00
3660;DHT22;1846;51.482;7.224;2023-07-02T00:21:57;18.60;1.00
3660;DHT22;1846;51.482;7.224;2023-07-02T00:24:24;18.50;1.00
3660;DHT22;1846;51.482;7.224;2023-07-02T00:26:51;18.50;1.00
3660;DHT22;1846;51.482;7.224;2023-07-02T00:29:20;18.50;1.00
3660;DHT22;1846;51.482;7.224;2023-07-02T00:31:47;18.60;1.00
3660;DHT22;1846;51.482;7.224;2023-07-02T00:34:14;18.60;1.00
3660;DHT22;1846;51.482;7.224;2023-07-02T00:36:41;18.50;1.00
3660;DHT22;1846;51.482;7.224;2023-07-02T00:39:08;18.60;1.00
3660;DHT22;1846;51.482;7.224;2023-07-02T00:41:37;18.60;1.00
3660;DHT22;1846;51.482;7.224;2023-07-02T00:44:04;18.50;1.00
3660;DHT22;1846;51.482;7.224;2023-07-02T00:46:33;18.50;1.00
3660;DHT22;1846;51.482;7.224;2023-07-02T00:49:01;18.50;1.00
3660;DHT22;1846;51.482;7.224;2023-07-02T00:51:30;18.50;1.00
3660;DHT22;1846;51.482;7.224;2023-07-02T00:53:58;18.50;99.90
3660;DHT22;1846;51.482;7.224;2023-07-02T00:56:26;18.60;99.90
3660;DHT22;1846;51.482;7.224;2023-07-02T00:58:54;18.50;99.90
3660;DHT22;1846;51.482;7.224;2023-07-02T01:01:26;18.50;99.90
3660;DHT22;1846;51.482;7.224;2023-07-02T01:03:57;18.60;99.90
3660;DHT22;1846;51.482;7.224;2023-07-02T01:06:25;18.60;99.90
3660;DHT22;1846;51.482;7.224;2023-07-02T01:08:54;18.60;99.90
3660;DHT22;1846;51.482;7.224;2023-07-02T01:11:24;18.60;99.90
3660;DHT22;1846;51.482;7.224;2023-07-02T01:13:54;18.60;99.90
3660;DHT22;1846;51.482;7.224;2023-07-02T01:16:22;18.60;99.90
3660;DHT22;1846;51.482;7.224;2023-07-02T01:18:50;18.50;99.90
3660;DHT22;1846;51.482;7.224;2023-07-02T01:21:21;18.50;99.90
3660;DHT22;1846;51.482;7.224;2023-07-02T01:23:49;18.60;99.90
3660;DHT22;1846;51.482;7.224;2023-07-02T01:26:16;18.50;99.90
3660;DHT22;1846;51.482;7.224;2023-07-02T01:28:44;18.50;99.90
3660;DHT22;1846;51.482;7.224;2023-07-02T01:31:11;18.60;99.90
3660;DHT22;1846;51.482;7.224;2023-07-02T01:33:38;18.40;99.90
3660;DHT22;1846;51.482;7.224;2023-07-02T01:36:06;18.30;99.90
3660;DHT22;1846;51.482;7.224;2023-07-02T01:38:34;18.10;99.90
3660;DHT22;1846;51.482;7.224;2023-07-02T01:41:01;18.00;99.90
3660;DHT22;1846;51.482;7.224;2023-07-02T01:43:28;18.00;1.00
3660;DHT22;1846;51.482;7.224;2023-07-02T01:45:55;18.00;99.90
3660;DHT22;1846;51.482;7.224;2023-07-02T01:48:22;17.90;1.00
3660;DHT22;1846;51.482;7.224;2023-07-02T01:50:49;17.80;1.00
3660;DHT22;1846;51.482;7.224;2023-07-02T01:53:16;17.80;1.00
3660;DHT22;1846;51.482;7.224;2023-07-02T01:55:44;17.80;1.00
3660;DHT22;1846;51.482;7.224;2023-07-02T01:58:11;17.80;1.00
3660;DHT22;1846;51.482;7.224;2023-07-02T02:00:38;17.80;1.00
3660;DHT22;1846;51.482;7.224;2023-07-02T02:03:05;17.90;1.00
3660;DHT22;1846;51.482;7.224;2023-07-02T02:05:32;17.90;1.00
3660;DHT22;1846;51.482;7.224;2023-07-02T02:07:59;17.90;99.90
3660;DHT22;1846;51.482;7.224;2023-07-02T02:10:26;17.90;99.90
3660;DHT22;1846;51.482;7.224;2023-07-02T02:12:54;17.90;99.90
3660;DHT22;1846;51.482;7.224;2023-07-02T02:15:21;17.90;99.90
3660;DHT22;1846;51.482;7.224;2023-07-02T02:17:48;17.90;99.90
3660;DHT22;1846;51.482;7.224;2023-07-02T02:20:16;17.90;99.90
3660;DHT22;1846;51.482;7.224;2023-07-02T02:22:43;17.90;99.90
3660;DHT22;1846;51.482;7.224;2023-07-02T02:25:10;17.90;99.90
3660;DHT22;1846;51.482;7.224;2023-07-02T02:27:37;17.80;99.90
3660;DHT22;1846;51.482;7.224;2023-07-02T02:30:07;17.80;99.90
3660;DHT22;1846;51.482;7.224;2023-07-02T02:32:34;17.80;99.90
3660;DHT22;1846;51.482;7.224;2023-07-02T02:35:03;17.70;99.90
3660;DHT22;1846;51.482;7.224;2023-07-02T02:37:30;17.70;99.90
3660;DHT22;1846;51.482;7.224;2023-07-02T02:39:57;17.70;99.90
3660;DHT22;1846;51.482;7.224;2023-07-02T02:42:25;17.70;99.90
3660;DHT22;1846;51.482;7.224;2023-07-02T02:44:52;17.70;99.90
3660;DHT22;1846;51.482;7.224;2023-07-02T02:47:20;17.70;99.90
3660;DHT22;1846;51.482;7.224;2023-07-02T02:49:47;17.70;99.90
3660;DHT22;1846;51.482;7.224;2023-07-02T02:52:14;17.70;99.90
3660;DHT22;1846;51.482;7.224;2023-07-02T02:54:41;17.70;99.90
3660;DHT22;1846;51.482;7.224;2023-07-02T02:57:08;17.70;99.90
3660;DHT22;1846;51.482;7.224;2023-07-02T02:59:35;17.70;99.90
3660;DHT22;1846;51.482;7.224;2023-07-02T03:02:02;17.80;99.90
3660;DHT22;1846;51.482;7.224;2023-07-02T03:04:30;17.90;99.90
3660;DHT22;1846;51.482;7.224;2023-07-02T03:06:57;17.70;99.90
3660;DHT22;1846;51.482;7.224;2023-07-02T03:09:24;17.70;99.90
3660;DHT22;1846;51.482;7.224;2023-07-02T03:11:51;17.70;99.90
3660;DHT22;1846;51.482;7.224;2023-07-02T03:14:18;17.70;99.90
3660;DHT22;1846;51.482;7.224;2023-07-02T03:16:45;17.60;99.90
3660;DHT22;1846;51.482;7.224;2023-07-02T03:19:12;17.60;99.90
3660;DHT22;1846;51.482;7.224;2023-07-02T03:21:43;17.60;99.90
3660;DHT22;1846;51.482;7.224;2023-07-02T03:24:10;17.60;99.90
3660;DHT22;1846;51.482;7.224;2023-07-02T03:26:39;17.70;99.90
3660;DHT22;1846;51.482;7.224;2023-07-02T03:29:06;17.70;99.90
3660;DHT22;1846;51.482;7.224;2023-07-02T03:31:33;17.70;99.90
3660;DHT22;1846;51.482;7.224;2023-07-02T03:34:03;17.70;99.90
3660;DHT22;1846;51.482;7.224;2023-07-02T03:36:30;17.60;99.90
3660;DHT22;1846;51.482;7.224;2023-07-02T03:38:58;17.60;99.90
3660;DHT22;1846;51.482;7.224;2023-07-02T03:41:25;17.40;99.90
3660;DHT22;1846;51.482;7.224;2023-07-02T03:43:52;17.30;99.90
3660;DHT22;1846;51.482;7.224;2023-07-02T03:46:19;17.40;99.90
3660;DHT22;1846;51.482;7.224;2023-07-02T03:48:46;17.40;99.90
3660;DHT22;1846;51.482;7.224;2023-07-02T03:51:13;17.40;99.90
3660;DHT22;1846;51.482;7.224;2023-07-02T03:53:40;17.40;99.90
3660;DHT22;1846;51.482;7.224;2023-07-02T03:56:08;17.40;99.90
3660;DHT22;1846;51.482;7.224;2023-07-02T03:58:35;17.40;99.90
3660;DHT22;1846;51.482;7.224;2023-07-02T04:01:02;17.50;99.90
3660;DHT22;1846;51.482;7.224;2023-07-02T04:03:29;17.50;99.90
3660;DHT22;1846;51.482;7.224;2023-07-02T04:05:56;17.50;99.90
3660;DHT22;1846;51.482;7.224;2023-07-02T04:08:23;17.50;99.90
3660;DHT22;1846;51.482;7.224;2023-07-02T04:10:50;17.50;99.90
3660;DHT22;1846;51.482;7.224;2023-07-02T04:13:19;17.60;99.90
3660;DHT22;1846;51.482;7.224;2023-07-02T04:15:46;17.60;99.90
3660;DHT22;1846;51.482;7.224;2023-07-02T04:18:16;17.60;99.90
3660;DHT22;1846;51.482;7.224;2023-07-02T04:20:42;17.70;99.90
3660;DHT22;1846;51.482;7.224;2023-07-02T04:23:09;17.60;99.90
3660;DHT22;1846;51.482;7.224;2023-07-02T04:25:36;17.60;99.90
3660;DHT22;1846;51.482;7.224;2023-07-02T04:28:03;17.50;99.90
3660;DHT22;1846;51.482;7.224;2023-07-02T04:30:33;17.50;99.90
3660;DHT22;1846;51.482;7.224;2023-07-02T04:33:00;17.50;99.90
3660;DHT22;1846;51.482;7.224;2023-07-02T04:35:27;17.50;99.90
3660;DHT22;1846;51.482;7.224;2023-07-02T04:37:54;17.50;99.90
3660;DHT22;1846;51.482;7.224;2023-07-02T04:40:21;17.50;99.90
3660;DHT22;1846;51.482;7.224;2023-07-02T04:42:48;17.60;99.90
3660;DHT22;1846;51.482;7.224;2023-07-02T04:45:23;17.50;99.90
3660;DHT22;1846;51.482;7.224;2023-07-02T04:47:52;17.60;99.90
3660;DHT22;1846;51.482;7.224;2023-07-02T04:50:19;17.60;99.90
3660;DHT22;1846;51.482;7.224;2023-07-02T04:52:46;17.60;99.90
3660;DHT22;1846;51.482;7.224;2023-07-02T04:55:13;17.60;99.90
3660;DHT22;1846;51.482;7.224;2023-07-02T04:57:40;17.60;99.90
3660;DHT22;1846;51.482;7.224;2023-07-02T05:00:08;17.70;99.90
3660;DHT22;1846;51.482;7.224;2023-07-02T05:02:35;17.70;99.90
3660;DHT22;1846;51.482;7.224;2023-07-02T05:05:03;17.80;99.90
3660;DHT22;1846;51.482;7.224;2023-07-02T05:07:30;17.70;99.90
3660;DHT22;1846;51.482;7.224;2023-07-02T05:09:57;17.60;99.90
3660;DHT22;1846;51.482;7.224;2023-07-02T05:12:24;17.60;99.90
3660;DHT22;1846;51.482;7.224;2023-07-02T05:14:51;17.70;99.90
3660;DHT22;1846;51.482;7.224;2023-07-02T05:17:17;17.70;99.90
3660;DHT22;1846;51.482;7.224;2023-07-02T05:19:44;17.70;99.90
3660;DHT22;1846;51.482;7.224;2023-07-02T05:22:12;17.70;99.90
3660;DHT22;1846;51.482;7.224;2023-07-02T05:24:39;17.70;99.90
3660;DHT22;1846;51.482;7.224;2023-07-02T05:27:07;17.60;99.90
3660;DHT22;1846;51.482;7.224;2023-07-02T05:29:33;17.60;99.90
3660;DHT22;1846;51.482;7.224;2023-07-02T05:32:00;17.70;99.90
3660;DHT22;1846;51.482;7.224;2023-07-02T05:34:27;17.80;99.90
3660;DHT22;1846;51.482;7.224;2023-07-02T05:36:54;17.70;99.90
3660;DHT22;1846;51.482;7.224;2023-07-02T05:39:22;17.60;99.90
3660;DHT22;1846;51.482;7.224;2023-07-02T05:41:49;17.70;99.90
3660;DHT22;1846;51.482;7.224;2023-07-02T05:44:16;17.80;99.90
3660;DHT22;1846;51.482;7.224;2023-07-02T05:46:43;17.90;99.90
3660;DHT22;1846;51.482;7.224;2023-07-02T05:49:09;17.70;99.90
3660;DHT22;1846;51.482;7.224;2023-07-02T05:51:36;17.90;99.90
3660;DHT22;1846;51.482;7.224;2023-07-02T05:54:03;17.90;99.90
3660;DHT22;1846;51.482;7.224;2023-07-02T05:56:31;17.90;99.90
3660;DHT22;1846;51.482;7.224;2023-07-02T05:58:58;18.00;99.90
3660;DHT22;1846;51.482;7.224;2023-07-02T06:01:25;18.00;99.90
3660;DHT22;1846;51.482;7.224;2023-07-02T06:03:52;18.00;99.90
3660;DHT22;1846;51.482;7.224;2023-07-02T06:06:20;18.00;99.90
3660;DHT22;1846;51.482;7.224;2023-07-02T06:08:48;18.00;99.90
3660;DHT22;1846;51.482;7.224;2023-07-02T06:11:15;18.10;99.90
3660;DHT22;1846;51.482;7.224;2023-07-02T06:13:43;18.20;99.90
3660;DHT22;1846;51.482;7.224;2023-07-02T06:16:10;18.20;99.90
3660;DHT22;1846;51.482;7.224;2023-07-02T06:18:37;18.20;99.90
3660;DHT22;1846;51.482;7.224;2023-07-02T06:21:04;18.20;99.90
3660;DHT22;1846;51.482;7.224;2023-07-02T06:23:39;18.30;99.90
3660;DHT22;1846;51.482;7.224;2023-07-02T06:26:06;18.40;99.90
3660;DHT22;1846;51.482;7.224;2023-07-02T06:28:33;18.40;99.90
3660;DHT22;1846;51.482;7.224;2023-07-02T06:31:03;18.40;99.90
3660;DHT22;1846;51.482;7.224;2023-07-02T06:33:30;18.50;99.90
3660;DHT22;1846;51.482;7.224;2023-07-02T06:35:57;18.40;99.90
3660;DHT22;1846;51.482;7.224;2023-07-02T06:38:24;18.50;99.90
3660;DHT22;1846;51.482;7.224;2023-07-02T06:40:51;18.40;99.90
3660;DHT22;1846;51.482;7.224;2023-07-02T06:43:18;18.40;83.20
3660;DHT22;1846;51.482;7.224;2023-07-02T06:45:45;18.20;80.70
3660;DHT22;1846;51.482;7.224;2023-07-02T06:48:13;18.40;92.40
3660;DHT22;1846;51.482;7.224;2023-07-02T06:50:43;18.40;63.10
3660;DHT22;1846;51.482;7.224;2023-07-02T06:53:11;18.60;45.30
3660;DHT22;1846;51.482;7.224;2023-07-02T06:55:38;18.50;46.00
3660;DHT22;1846;51.482;7.224;2023-07-02T06:58:05;18.50;51.10
3660;DHT22;1846;51.482;7.224;2023-07-02T07:00:33;18.70;50.20
3660;DHT22;1846;51.482;7.224;2023-07-02T07:03:01;18.70;32.00
3660;DHT22;1846;51.482;7.224;2023-07-02T07:05:29;18.70;29.90
3660;DHT22;1846;51.482;7.224;2023-07-02T07:07:57;18.70;30.20
3660;DHT22;1846;51.482;7.224;2023-07-02T07:10:24;18.70;26.80
3660;DHT22;1846;51.482;7.224;2023-07-02T07:12:51;18.70;28.40
3660;DHT22;1846;51.482;7.224;2023-07-02T07:15:18;18.90;26.60
3660;DHT22;1846;51.482;7.224;2023-07-02T07:17:45;18.80;24.80
3660;DHT22;1846;51.482;7.224;2023-07-02T07:20:12;19.00;21.40
3660;DHT22;1846;51.482;7.224;2023-07-02T07:22:41;18.90;20.60
3660;DHT22;1846;51.482;7.224;2023-07-02T07:25:08;18.90;19.90
3660;DHT22;1846;51.482;7.224;2023-07-02T07:27:35;18.90;16.70
3660;DHT22;1846;51.482;7.224;2023-07-02T07:30:03;18.90;16.90
3660;DHT22;1846;51.482;7.224;2023-07-02T07:32:30;18.90;15.60
3660;DHT22;1846;51.482;7.224;2023-07-02T07:34:57;19.00;15.00
3660;DHT22;1846;51.482;7.224;2023-07-02T07:37:31;19.00;14.60
3660;DHT22;1846;51.482;7.224;2023-07-02T07:40:03;19.10;13.90
3660;DHT22;1846;51.482;7.224;2023-07-02T07:42:31;19.20;13.70
3660;DHT22;1846;51.482;7.224;2023-07-02T07:44:58;19.40;12.20
3660;DHT22;1846;51.482;7.224;2023-07-02T07:47:25;19.40;12.30
3660;DHT22;1846;51.482;7.224;2023-07-02T07:49:52;19.50;12.00
3660;DHT22;1846;51.482;7.224;2023-07-02T07:52:20;19.50;10.80
3660;DHT22;1846;51.482;7.224;2023-07-02T07:54:47;19.60;10.40
3660;DHT22;1846;51.482;7.224;2023-07-02T07:57:15;19.60;7.20
3660;DHT22;1846;51.482;7.224;2023-07-02T07:59:42;19.70;6.60
3660;DHT22;1846;51.482;7.224;2023-07-02T08:02:09;19.60;6.00
3660;DHT22;1846;51.482;7.224;2023-07-02T08:04:36;19.70;7.00
3660;DHT22;1846;51.482;7.224;2023-07-02T08:07:04;19.80;7.30
3660;DHT22;1846;51.482;7.224;2023-07-02T08:09:32;19.80;7.50
3660;DHT22;1846;51.482;7.224;2023-07-02T08:11:59;19.90;6.90
3660;DHT22;1846;51.482;7.224;2023-07-02T08:14:27;19.80;7.30
3660;DHT22;1846;51.482;7.224;2023-07-02T08:16:54;19.70;4.50
3660;DHT22;1846;51.482;7.224;2023-07-02T08:19:21;19.60;3.30
3660;DHT22;1846;51.482;7.224;2023-07-02T08:21:48;19.50;10.70
3660;DHT22;1846;51.482;7.224;2023-07-02T08:24:14;19.70;2.70
3660;DHT22;1846;51.482;7.224;2023-07-02T08:26:41;19.70;1.10
3660;DHT22;1846;51.482;7.224;2023-07-02T08:29:10;19.70;1.00
3660;DHT22;1846;51.482;7.224;2023-07-02T08:31:39;19.80;1.00
3660;DHT22;1846;51.482;7.224;2023-07-02T08:34:06;19.70;1.00
3660;DHT22;1846;51.482;7.224;2023-07-02T08:36:33;19.60;1.00
3660;DHT22;1846;51.482;7.224;2023-07-02T08:39:00;19.70;1.00
3660;DHT22;1846;51.482;7.224;2023-07-02T08:41:28;19.90;1.00
3660;DHT22;1846;51.482;7.224;2023-07-02T08:43:57;19.90;1.00
3660;DHT22;1846;51.482;7.224;2023-07-02T08:46:25;19.90;1.00
3660;DHT22;1846;51.482;7.224;2023-07-02T08:48:53;20.00;1.00
3660;DHT22;1846;51.482;7.224;2023-07-02T08:51:20;19.80;1.00
3660;DHT22;1846;51.482;7.224;2023-07-02T08:53:47;19.70;1.00
3660;DHT22;1846;51.482;7.224;2023-07-02T08:56:14;19.60;1.00
3660;DHT22;1846;51.482;7.224;2023-07-02T08:58:41;19.60;1.00
3660;DHT22;1846;51.482;7.224;2023-07-02T09:01:09;19.70;1.00
3660;DHT22;1846;51.482;7.224;2023-07-02T09:03:40;19.70;1.00
3660;DHT22;1846;51.482;7.224;2023-07-02T09:06:10;19.90;1.00
3660;DHT22;1846;51.482;7.224;2023-07-02T09:08:38;20.00;1.00
3660;DHT22;1846;51.482;7.224;2023-07-02T09:11:06;19.90;1.00
3660;DHT22;1846;51.482;7.224;2023-07-02T09:13:45;20.00;1.00
3660;DHT22;1846;51.482;7.224;2023-07-02T09:16:27;20.00;1.00
3660;DHT22;1846;51.482;7.224;2023-07-02T09:18:58;20.20;1.00
3660;DHT22;1846;51.482;7.224;2023-07-02T09:21:27;20.30;1.00
3660;DHT22;1846;51.482;7.224;2023-07-02T09:23:55;20.30;1.00
3660;DHT22;1846;51.482;7.224;2023-07-02T09:26:22;20.60;1.00
3660;DHT22;1846;51.482;7.224;2023-07-02T09:28:50;20.60;1.00
3660;DHT22;1846;51.482;7.224;2023-07-02T09:31:16;20.70;1.00
3660;DHT22;1846;51.482;7.224;2023-07-02T09:33:43;20.80;1.00
3660;DHT22;1846;51.482;7.224;2023-07-02T09:36:11;20.80;1.00
3660;DHT22;1846;51.482;7.224;2023-07-02T09:38:41;20.90;1.00
3660;DHT22;1846;51.482;7.224;2023-07-02T09:41:08;21.10;1.00
3660;DHT22;1846;51.482;7.224;2023-07-02T09:43:35;21.20;1.00
3660;DHT22;1846;51.482;7.224;2023-07-02T09:46:03;21.10;1.00
3660;DHT22;1846;51.482;7.224;2023-07-02T09:48:32;21.00;1.00
3660;DHT22;1846;51.482;7.224;2023-07-02T09:51:02;21.20;1.00
3660;DHT22;1846;51.482;7.224;2023-07-02T09:53:30;21.40;1.00
3660;DHT22;1846;51.482;7.224;2023-07-02T09:55:58;21.40;1.00
3660;DHT22;1846;51.482;7.224;2023-07-02T09:58:25;21.60;1.00
3660;DHT22;1846;51.482;7.224;2023-07-02T10:00:52;21.70;1.00
3660;DHT22;1846;51.482;7.224;2023-07-02T10:03:28;21.90;1.00
3660;DHT22;1846;51.482;7.224;2023-07-02T10:06:03;21.90;1.00
3660;DHT22;1846;51.482;7.224;2023-07-02T10:08:31;22.00;1.00
3660;DHT22;1846;51.482;7.224;2023-07-02T10:11:08;21.70;1.00
3660;DHT22;1846;51.482;7.224;2023-07-02T10:13:35;21.60;1.00
3660;DHT22;1846;51.482;7.224;2023-07-02T10:16:03;21.40;1.00
3660;DHT22;1846;51.482;7.224;2023-07-02T10:18:30;21.20;1.00
3660;DHT22;1846;51.482;7.224;2023-07-02T10:20:57;21.00;1.00
3660;DHT22;1846;51.482;7.224;2023-07-02T10:23:33;21.10;1.00
3660;DHT22;1846;51.482;7.224;2023-07-02T10:26:13;21.30;1.00
3660;DHT22;1846;51.482;7.224;2023-07-02T10:28:41;21.20;1.00
3660;DHT22;1846;51.482;7.224;2023-07-02T10:31:18;21.00;1.00
3660;DHT22;1846;51.482;7.224;2023-07-02T10:33:46;21.00;1.00
3660;DHT22;1846;51.482;7.224;2023-07-02T10:36:18;20.70;1.00
3660;DHT22;1846;51.482;7.224;2023-07-02T10:38:46;20.30;1.00
3660;DHT22;1846;51.482;7.224;2023-07-02T10:41:23;20.10;1.00
3660;DHT22;1846;51.482;7.224;2023-07-02T10:43:50;19.90;1.00
3660;DHT22;1846;51.482;7.224;2023-07-02T10:46:20;20.00;1.00
3660;DHT22;1846;51.482;7.224;2023-07-02T10:48:54;19.90;1.00
3660;DHT22;1846;51.482;7.224;2023-07-02T10:51:21;20.10;1.00
3660;DHT22;1846;51.482;7.224;2023-07-02T10:53:58;20.40;1.00
3660;DHT22;1846;51.482;7.224;2023-07-02T10:56:27;21.30;1.00
3660;DHT22;1846;51.482;7.224;2023-07-02T10:58:54;22.30;1.00
3660;DHT22;1846;51.482;7.224;2023-07-02T11:01:28;23.30;1.00
3660;DHT22;1846;51.482;7.224;2023-07-02T11:03:57;24.40;1.00
3660;DHT22;1846;51.482;7.224;2023-07-02T11:06:24;25.10;1.00
3660;DHT22;1846;51.482;7.224;2023-07-02T11:08:52;25.00;1.00
3660;DHT22;1846;51.482;7.224;2023-07-02T11:11:21;24.80;1.00
3660;DHT22;1846;51.482;7.224;2023-07-02T11:13:50;24.40;1.00
3660;DHT22;1846;51.482;7.224;2023-07-02T11:16:19;23.80;1.00
3660;DHT22;1846;51.482;7.224;2023-07-02T11:18:48;23.10;1.00
3660;DHT22;1846;51.482;7.224;2023-07-02T11:21:15;22.70;1.00
3660;DHT22;1846;51.482;7.224;2023-07-02T11:23:42;22.30;1.00
3660;DHT22;1846;51.482;7.224;2023-07-02T11:26:09;21.90;1.00
3660;DHT22;1846;51.482;7.224;2023-07-02T11:28:35;21.90;1.00
3660;DHT22;1846;51.482;7.224;2023-07-02T11:31:04;21.70;1.00
3660;DHT22;1846;51.482;7.224;2023-07-02T11:33:34;21.60;1.00
3660;DHT22;1846;51.482;7.224;2023-07-02T11:36:01;21.40;1.00
3660;DHT22;1846;51.482;7.224;2023-07-02T11:38:28;21.60;1.00
3660;DHT22;1846;51.482;7.224;2023-07-02T11:40:55;22.10;1.00
3660;DHT22;1846;51.482;7.224;2023-07-02T11:43:22;22.40;1.00
3660;DHT22;1846;51.482;7.224;2023-07-02T11:45:49;22.40;1.00
3660;DHT22;1846;51.482;7.224;2023-07-02T11:48:17;23.20;1.00
3660;DHT22;1846;51.482;7.224;2023-07-02T11:50:44;23.90;1.00
3660;DHT22;1846;51.482;7.224;2023-07-02T11:53:11;24.10;1.00
3660;DHT22;1846;51.482;7.224;2023-07-02T11:55:38;24.50;1.00
3660;DHT22;1846;51.482;7.224;2023-07-02T11:58:05;24.70;1.00
3660;DHT22;1846;51.482;7.224;2023-07-02T12:00:32;25.00;1.60
3660;DHT22;1846;51.482;7.224;2023-07-02T12:02:59;25.20;1.00
3660;DHT22;1846;51.482;7.224;2023-07-02T12:05:28;25.30;1.00
3660;DHT22;1846;51.482;7.224;2023-07-02T12:07:55;25.00;1.00
3660;DHT22;1846;51.482;7.224;2023-07-02T12:10:22;24.50;1.00
3660;DHT22;1846;51.482;7.224;2023-07-02T12:12:50;24.00;1.00
3660;DHT22;1846;51.482;7.224;2023-07-02T12:15:17;23.70;1.00
3660;DHT22;1846;51.482;7.224;2023-07-02T12:17:44;24.00;1.00
3660;DHT22;1846;51.482;7.224;2023-07-02T12:20:11;24.80;1.00
3660;DHT22;1846;51.482;7.224;2023-07-02T12:22:40;25.00;1.00
3660;DHT22;1846;51.482;7.224;2023-07-02T12:25:07;24.50;1.00
3660;DHT22;1846;51.482;7.224;2023-07-02T12:27:34;24.00;1.00
3660;DHT22;1846;51.482;7.224;2023-07-02T12:30:01;23.40;1.00
3660;DHT22;1846;51.482;7.224;2023-07-02T12:32:28;23.00;1.00
3660;DHT22;1846;51.482;7.224;2023-07-02T12:34:55;22.70;1.00
3660;DHT22;1846;51.482;7.224;2023-07-02T12:37:22;22.80;1.00
3660;DHT22;1846;51.482;7.224;2023-07-02T12:39:52;23.60;1.00
3660;DHT22;1846;51.482;7.224;2023-07-02T12:42:19;23.80;1.00
3660;DHT22;1846;51.482;7.224;2023-07-02T12:44:46;23.30;1.00
3660;DHT22;1846;51.482;7.224;2023-07-02T12:47:13;22.90;1.00
3660;DHT22;1846;51.482;7.224;2023-07-02T12:49:40;22.90;1.00
3660;DHT22;1846;51.482;7.224;2023-07-02T12:52:07;23.20;1.00
3660;DHT22;1846;51.482;7.224;2023-07-02T12:54:34;23.20;1.00
3660;DHT22;1846;51.482;7.224;2023-07-02T12:57:03;23.40;1.00
3660;DHT22;1846;51.482;7.224;2023-07-02T12:59:30;23.70;1.00
3660;DHT22;1846;51.482;7.224;2023-07-02T13:01:56;23.90;1.00
3660;DHT22;1846;51.482;7.224;2023-07-02T13:04:23;24.20;1.00
3660;DHT22;1846;51.482;7.224;2023-07-02T13:06:50;24.30;1.00
3660;DHT22;1846;51.482;7.224;2023-07-02T13:09:17;24.10;1.00
3660;DHT22;1846;51.482;7.224;2023-07-02T13:11:44;23.80;1.00
3660;DHT22;1846;51.482;7.224;2023-07-02T13:14:12;23.70;1.00
3660;DHT22;1846;51.482;7.224;2023-07-02T13:16:39;23.80;1.00
3660;DHT22;1846;51.482;7.224;2023-07-02T13:19:06;23.80;1.00
3660;DHT22;1846;51.482;7.224;2023-07-02T13:21:33;23.70;1.00
3660;DHT22;1846;51.482;7.224;2023-07-02T13:24:00;23.30;1.00
3660;DHT22;1846;51.482;7.224;2023-07-02T13:26:27;23.00;1.00
3660;DHT22;1846;51.482;7.224;2023-07-02T13:28:54;23.10;1.00
3660;DHT22;1846;51.482;7.224;2023-07-02T13:31:22;23.20;1.00
3660;DHT22;1846;51.482;7.224;2023-07-02T13:33:49;23.20;1.00
3660;DHT22;1846;51.482;7.224;2023-07-02T13:36:16;23.10;1.00
3660;DHT22;1846;51.482;7.224;2023-07-02T13:38:43;23.20;1.00
3660;DHT22;1846;51.482;7.224;2023-07-02T13:41:10;23.20;1.00
3660;DHT22;1846;51.482;7.224;2023-07-02T13:43:37;23.00;1.00
3660;DHT22;1846;51.482;7.224;2023-07-02T13:46:04;22.70;1.00
3660;DHT22;1846;51.482;7.224;2023-07-02T13:48:32;22.70;1.00
3660;DHT22;1846;51.482;7.224;2023-07-02T13:51:00;22.70;1.00
3660;DHT22;1846;51.482;7.224;2023-07-02T13:53:27;22.80;1.00
3660;DHT22;1846;51.482;7.224;2023-07-02T13:55:54;22.70;1.00
3660;DHT22;1846;51.482;7.224;2023-07-02T13:58:22;22.50;1.00
3660;DHT22;1846;51.482;7.224;2023-07-02T14:00:50;22.50;1.00
3660;DHT22;1846;51.482;7.224;2023-07-02T14:03:19;22.40;1.00
3660;DHT22;1846;51.482;7.224;2023-07-02T14:05:46;22.40;1.00
3660;DHT22;1846;51.482;7.224;2023-07-02T14:08:13;22.60;1.00
3660;DHT22;1846;51.482;7.224;2023-07-02T14:10:40;22.70;1.00
3660;DHT22;1846;51.482;7.224;2023-07-02T14:13:07;22.90;1.00
3660;DHT22;1846;51.482;7.224;2023-07-02T14:15:34;23.10;1.00
3660;DHT22;1846;51.482;7.224;2023-07-02T14:18:02;23.00;1.00
3660;DHT22;1846;51.482;7.224;2023-07-02T14:20:29;22.70;1.00
3660;DHT22;1846;51.482;7.224;2023-07-02T14:22:56;22.30;1.00
3660;DHT22;1846;51.482;7.224;2023-07-02T14:25:23;22.10;1.00
3660;DHT22;1846;51.482;7.224;2023-07-02T14:27:49;22.20;1.00
3660;DHT22;1846;51.482;7.224;2023-07-02T14:30:16;22.30;1.00
3660;DHT22;1846;51.482;7.224;2023-07-02T14:32:43;22.60;1.00
3660;DHT22;1846;51.482;7.224;2023-07-02T14:35:12;22.60;1.00
3660;DHT22;1846;51.482;7.224;2023-07-02T14:37:39;22.80;1.00
3660;DHT22;1846;51.482;7.224;2023-07-02T14:40:07;22.70;1.00
3660;DHT22;1846;51.482;7.224;2023-07-02T14:42:34;22.70;1.00
3660;DHT22;1846;51.482;7.224;2023-07-02T14:45:01;22.80;1.00
3660;DHT22;1846;51.482;7.224;2023-07-02T14:47:28;22.80;1.00
3660;DHT22;1846;51.482;7.224;2023-07-02T14:49:55;22.80;1.00
3660;DHT22;1846;51.482;7.224;2023-07-02T14:52:23;22.90;1.00
3660;DHT22;1846;51.482;7.224;2023-07-02T14:54:50;22.80;1.00
3660;DHT22;1846;51.482;7.224;2023-07-02T14:57:19;22.70;1.00
3660;DHT22;1846;51.482;7.224;2023-07-02T14:59:47;22.60;1.00
3660;DHT22;1846;51.482;7.224;2023-07-02T15:02:15;22.50;1.00
3660;DHT22;1846;51.482;7.224;2023-07-02T15:04:42;22.70;1.00
3660;DHT22;1846;51.482;7.224;2023-07-02T15:07:12;22.80;1.00
3660;DHT22;1846;51.482;7.224;2023-07-02T15:09:40;22.90;1.00
3660;DHT22;1846;51.482;7.224;2023-07-02T15:12:07;22.90;1.00
3660;DHT22;1846;51.482;7.224;2023-07-02T15:14:34;22.80;1.00
3660;DHT22;1846;51.482;7.224;2023-07-02T15:17:01;22.80;1.00
3660;DHT22;1846;51.482;7.224;2023-07-02T15:19:28;22.60;1.00
3660;DHT22;1846;51.482;7.224;2023-07-02T15:21:55;22.50;1.00
3660;DHT22;1846;51.482;7.224;2023-07-02T15:24:22;22.50;1.00
3660;DHT22;1846;51.482;7.224;2023-07-02T15:26:50;22.50;1.00
3660;DHT22;1846;51.482;7.224;2023-07-02T15:29:17;22.50;1.00
3660;DHT22;1846;51.482;7.224;2023-07-02T15:31:44;22.50;1.00
3660;DHT22;1846;51.482;7.224;2023-07-02T15:34:11;22.50;1.00
3660;DHT22;1846;51.482;7.224;2023-07-02T15:36:40;22.40;1.00
3660;DHT22;1846;51.482;7.224;2023-07-02T15:39:07;22.30;1.00
3660;DHT22;1846;51.482;7.224;2023-07-02T15:41:33;22.40;1.00
3660;DHT22;1846;51.482;7.224;2023-07-02T15:44:03;22.40;1.00
3660;DHT22;1846;51.482;7.224;2023-07-02T15:46:31;22.40;1.00
3660;DHT22;1846;51.482;7.224;2023-07-02T15:49:00;22.50;1.00
3660;DHT22;1846;51.482;7.224;2023-07-02T15:51:28;22.30;1.00
3660;DHT22;1846;51.482;7.224;2023-07-02T15:53:58;22.20;1.00
3660;DHT22;1846;51.482;7.224;2023-07-02T15:56:26;22.20;1.00
3660;DHT22;1846;51.482;7.224;2023-07-02T15:58:52;22.20;1.00
3660;DHT22;1846;51.482;7.224;2023-07-02T16:01:21;22.30;1.00
3660;DHT22;1846;51.482;7.224;2023-07-02T16:03:47;22.40;1.00
3660;DHT22;1846;51.482;7.224;2023-07-02T16:06:16;22.40;1.00
3660;DHT22;1846;51.482;7.224;2023-07-02T16:08:44;22.50;1.00
3660;DHT22;1846;51.482;7.224;2023-07-02T16:11:12;22.50;1.00
3660;DHT22;1846;51.482;7.224;2023-07-02T16:13:42;22.50;1.00
3660;DHT22;1846;51.482;7.224;2023-07-02T16:16:09;22.50;1.00